sensor_id;sensor_type;location;lat;lon;timestamp;pressure;altitude;pressure_sealevel;temperature;humidity
9774;BME280;4926;42.670;23.316;2023-05-12T00:01:08;94791.31;;;9.43;100.00
9774;BME280;4926;42.670;23.316;2023-05-12T00:03:36;94790.56;;;9.33;100.00
9774;BME280;4926;42.670;23.316;2023-05-12T00:06:03;94788.75;;;9.28;100.00
9774;BME280;4926;42.670;23.316;2023-05-12T00:08:30;94786.06;;;9.33;100.00
9774;BME280;4926;42.670;23.316;2023-05-12T00:10:56;94797.75;;;9.27;100.00
9774;BME280;4926;42.670;23.316;2023-05-12T00:13:29;94779.75;;;9.19;100.00
9774;BME280;4926;42.670;23.316;2023-05-12T00:15:55;94785.81;;;9.30;100.00
9774;BME280;4926;42.670;23.316;2023-05-12T00:18:23;94783.72;;;9.22;100.00
9774;BME280;4926;42.670;23.316;2023-05-12T00:20:51;94791.97;;;9.20;100.00
9774;BME280;4926;42.670;23.316;2023-05-12T00:23:19;94786.16;;;9.08;100.00
9774;BME280;4926;42.670;23.316;2023-05-12T00:25:49;94788.84;;;9.03;100.00
9774;BME280;4926;42.670;23.316;2023-05-12T00:28:16;94780.34;;;9.01;100.00
9774;BME280;4926;42.670;23.316;2023-05-12T00:30:43;94783.78;;;9.01;100.00
9774;BME280;4926;42.670;23.316;2023-05-12T00:33:10;94793.13;;;8.89;100.00
9774;BME280;4926;42.670;23.316;2023-05-12T00:35:39;94783.59;;;8.88;100.00
9774;BME280;4926;42.670;23.316;2023-05-12T00:38:07;94786.25;;;8.83;100.00
9774;BME280;4926;42.670;23.316;2023-05-12T00:40:34;94799.00;;;8.81;100.00
9774;BME280;4926;42.670;23.316;2023-05-12T00:43:01;94790.00;;;8.67;100.00
9774;BME280;4926;42.670;23.316;2023-05-12T00:45:28;94791.59;;;8.63;100.00
9774;BME280;4926;42.670;23.316;2023-05-12T00:47:56;94790.03;;;8.57;100.00
9774;BME280;4926;42.670;23.316;2023-05-12T00:50:23;94793.75;;;8.51;100.00
9774;BME280;4926;42.670;23.316;2023-05-12T00:52:52;94776.78;;;8.37;100.00
9774;BME280;4926;42.670;23.316;2023-05-12T00:55:20;94783.69;;;8.38;100.00
9774;BME280;4926;42.670;23.316;2023-05-12T00:57:47;94795.06;;;8.38;100.00
9774;BME280;4926;42.670;23.316;2023-05-12T01:00:14;94789.25;;;8.31;100.00
9774;BME280;4926;42.670;23.316;2023-05-12T01:02:40;94797.72;;;8.23;100.00
9774;BME280;4926;42.670;23.316;2023-05-12T01:05:08;94790.03;;;8.22;100.00
9774;BME280;4926;42.670;23.316;2023-05-12T01:07:40;94800.66;;;8.12;100.00
9774;BME280;4926;42.670;23.316;2023-05-12T01:10:17;94803.81;;;8.04;100.00
9774;BME280;4926;42.670;23.316;2023-05-12T01:12:45;94805.94;;;8.02;100.00
9774;BME280;4926;42.670;23.316;2023-05-12T01:15:12;94794.53;;;7.91;100.00
9774;BME280;4926;42.670;23.316;2023-05-12T01:17:43;94808.56;;;7.86;100.00
9774;BME280;4926;42.670;23.316;2023-05-12T01:20:11;94795.31;;;7.81;100.00
9774;BME280;4926;42.670;23.316;2023-05-12T01:22:42;94792.41;;;7.78;100.00
9774;BME280;4926;42.670;23.316;2023-05-12T01:25:10;94794.50;;;7.71;100.00
9774;BME280;4926;42.670;23.316;2023-05-12T01:27:41;94800.03;;;7.54;100.00
9774;BME280;4926;42.670;23.316;2023-05-12T01:30:11;94809.03;;;7.53;100.00
9774;BME280;4926;42.670;23.316;2023-05-12T01:32:38;94805.31;;;7.49;100.00
9774;BME280;4926;42.670;23.316;2023-05-12T01:35:06;94806.38;;;7.48;100.00
9774;BME280;4926;42.670;23.316;2023-05-12T01:37:33;94793.41;;;7.47;100.00
9774;BME280;4926;42.670;23.316;2023-05-12T01:40:03;94784.13;;;7.44;100.00
9774;BME280;4926;42.670;23.316;2023-05-12T01:42:37;94793.41;;;7.47;100.00
9774;BME280;4926;42.670;23.316;2023-05-12T01:45:07;94794.72;;;7.49;100.00
9774;BME280;4926;42.670;23.316;2023-05-12T01:47:34;94802.66;;;7.44;100.00
9774;BME280;4926;42.670;23.316;2023-05-12T01:50:00;94803.72;;;7.43;100.00
9774;BME280;4926;42.670;23.316;2023-05-12T01:52:33;94807.94;;;7.39;100.00
9774;BME280;4926;42.670;23.316;2023-05-12T01:55:05;94804.47;;;7.29;100.00
9774;BME280;4926;42.670;23.316;2023-05-12T01:57:38;94805.22;;;7.24;100.00
9774;BME280;4926;42.670;23.316;2023-05-12T02:00:10;94792.53;;;7.21;100.00
9774;BME280;4926;42.670;23.316;2023-05-12T02:02:37;94799.94;;;7.24;100.00
9774;BME280;4926;42.670;23.316;2023-05-12T02:05:07;94800.53;;;7.36;100.00
9774;BME280;4926;42.670;23.316;2023-05-12T02:07:34;94802.09;;;7.32;100.00
9774;BME280;4926;42.670;23.316;2023-05-12T02:10:04;94800.72;;;7.25;100.00
9774;BME280;4926;42.670;23.316;2023-05-12T02:12:34;94794.88;;;7.13;100.00
9774;BME280;4926;42.670;23.316;2023-05-12T02:15:04;94803.63;;;7.13;100.00
9774;BME280;4926;42.670;23.316;2023-05-12T02:17:34;94793.06;;;7.23;100.00
9774;BME280;4926;42.670;23.316;2023-05-12T02:20:02;94800.72;;;7.25;100.00
9774;BME280;4926;42.670;23.316;2023-05-12T02:22:30;94798.63;;;7.22;100.00
9774;BME280;4926;42.670;23.316;2023-05-12T02:24:56;94802.56;;;7.24;100.00
9774;BME280;4926;42.670;23.316;2023-05-12T02:27:23;94803.66;;;7.33;100.00
9774;BME280;4926;42.670;23.316;2023-05-12T02:29:50;94801.53;;;7.25;100.00
9774;BME280;4926;42.670;23.316;2023-05-12T02:32:18;94798.38;;;7.33;100.00
9774;BME280;4926;42.670;23.316;2023-05-12T02:34:47;94796.25;;;7.30;100.00
9774;BME280;4926;42.670;23.316;2023-05-12T02:37:14;94798.34;;;7.18;100.00
9774;BME280;4926;42.670;23.316;2023-05-12T02:39:41;94800.47;;;7.31;100.00
9774;BME280;4926;42.670;23.316;2023-05-12T02:42:07;94798.91;;;7.30;100.00
9774;BME280;4926;42.670;23.316;2023-05-12T02:44:37;94795.19;;;7.31;100.00
9774;BME280;4926;42.670;23.316;2023-05-12T02:47:04;94797.63;;;7.38;100.00
9774;BME280;4926;42.670;23.316;2023-05-12T02:49:31;94794.72;;;7.54;100.00
9774;BME280;4926;42.670;23.316;2023-05-12T02:51:59;94798.19;;;7.60;100.00
9774;BME280;4926;42.670;23.316;2023-05-12T02:54:27;94783.09;;;7.65;100.00
9774;BME280;4926;42.670;23.316;2023-05-12T02:56:54;94791.31;;;7.69;100.00
9774;BME280;4926;42.670;23.316;2023-05-12T02:59:22;94797.44;;;7.79;100.00
9774;BME280;4926;42.670;23.316;2023-05-12T03:01:49;94795.84;;;7.83;100.00
9774;BME280;4926;42.670;23.316;2023-05-12T03:04:15;94797.44;;;7.89;100.00
9774;BME280;4926;42.670;23.316;2023-05-12T03:06:42;94795.59;;;7.95;100.00
9774;BME280;4926;42.670;23.316;2023-05-12T03:09:12;94803.81;;;7.93;100.00
9774;BME280;4926;42.670;23.316;2023-05-12T03:11:39;94803.28;;;7.97;100.00
9774;BME280;4926;42.670;23.316;2023-05-12T03:14:08;94800.63;;;7.81;100.00
9774;BME280;4926;42.670;23.316;2023-05-12T03:16:34;94798.50;;;7.93;100.00
9774;BME280;4926;42.670;23.316;2023-05-12T03:19:01;94804.31;;;7.85;100.00
9774;BME280;4926;42.670;23.316;2023-05-12T03:21:29;94805.38;;;7.79;100.00
9774;BME280;4926;42.670;23.316;2023-05-12T03:23:56;94804.31;;;7.80;100.00
9774;BME280;4926;42.670;23.316;2023-05-12T03:26:24;94810.69;;;7.79;100.00
9774;BME280;4926;42.670;23.316;2023-05-12T03:28:51;94818.63;;;7.79;100.00
9774;BME280;4926;42.670;23.316;2023-05-12T03:31:17;94812.25;;;7.80;100.00
9774;BME280;4926;42.670;23.316;2023-05-12T03:33:44;94810.41;;;7.81;100.00
9774;BME280;4926;42.670;23.316;2023-05-12T03:36:12;94823.38;;;7.72;100.00
9774;BME280;4926;42.670;23.316;2023-05-12T03:38:39;94820.22;;;7.75;100.00
9774;BME280;4926;42.670;23.316;2023-05-12T03:41:06;94818.63;;;7.64;100.00
9774;BME280;4926;42.670;23.316;2023-05-12T03:43:39;94820.47;;;7.64;100.00
9774;BME280;4926;42.670;23.316;2023-05-12T03:46:09;94822.03;;;7.65;100.00
9774;BME280;4926;42.670;23.316;2023-05-12T03:48:36;94821.81;;;7.76;100.00
9774;BME280;4926;42.670;23.316;2023-05-12T03:51:02;94822.09;;;7.80;100.00
9774;BME280;4926;42.670;23.316;2023-05-12T03:53:29;94810.13;;;7.67;100.00
9774;BME280;4926;42.670;23.316;2023-05-12T03:55:56;94824.41;;;7.66;100.00
9774;BME280;4926;42.670;23.316;2023-05-12T03:58:23;94819.13;;;7.66;100.00
9774;BME280;4926;42.670;23.316;2023-05-12T04:00:51;94823.94;;;7.79;100.00
9774;BME280;4926;42.670;23.316;2023-05-12T04:03:18;94832.69;;;7.85;100.00
9774;BME280;4926;42.670;23.316;2023-05-12T04:05:44;94830.03;;;7.85;100.00
9774;BME280;4926;42.670;23.316;2023-05-12T04:08:13;94822.63;;;7.92;100.00
9774;BME280;4926;42.670;23.316;2023-05-12T04:10:40;94838.75;;;7.85;100.00
9774;BME280;4926;42.670;23.316;2023-05-12T04:13:10;94839.31;;;7.87;100.00
9774;BME280;4926;42.670;23.316;2023-05-12T04:15:37;94837.75;;;8.02;100.00
9774;BME280;4926;42.670;23.316;2023-05-12T04:18:06;94838.81;;;7.96;100.00
9774;BME280;4926;42.670;23.316;2023-05-12T04:20:33;94834.81;;;7.93;100.00
9774;BME280;4926;42.670;23.316;2023-05-12T04:22:59;94832.97;;;7.99;100.00
9774;BME280;4926;42.670;23.316;2023-05-12T04:25:26;94838.53;;;8.02;100.00
9774;BME280;4926;42.670;23.316;2023-05-12T04:27:53;94839.63;;;8.01;100.00
9774;BME280;4926;42.670;23.316;2023-05-12T04:30:19;94842.53;;;8.15;100.00
9774;BME280;4926;42.670;23.316;2023-05-12T04:32:46;94843.06;;;8.22;100.00
9774;BME280;4926;42.670;23.316;2023-05-12T04:35:17;94834.03;;;8.23;100.00
9774;BME280;4926;42.670;23.316;2023-05-12T04:37:44;94834.06;;;8.28;100.00
9774;BME280;4926;42.670;23.316;2023-05-12T04:40:11;94838.03;;;8.20;100.00
9774;BME280;4926;42.670;23.316;2023-05-12T04:42:38;94833.03;;;8.24;100.00
9774;BME280;4926;42.670;23.316;2023-05-12T04:45:08;94833.78;;;8.29;100.00
9774;BME280;4926;42.670;23.316;2023-05-12T04:47:37;94833.78;;;8.29;100.00
9774;BME280;4926;42.670;23.316;2023-05-12T04:50:04;94844.41;;;8.29;100.00
9774;BME280;4926;42.670;23.316;2023-05-12T04:52:33;94838.88;;;8.31;100.00
9774;BME280;4926;42.670;23.316;2023-05-12T04:54:59;94852.66;;;8.38;100.00
9774;BME280;4926;42.670;23.316;2023-05-12T04:57:26;94841.50;;;8.36;100.00
9774;BME280;4926;42.670;23.316;2023-05-12T04:59:55;94846.78;;;8.26;100.00
9774;BME280;4926;42.670;23.316;2023-05-12T05:02:26;94847.31;;;8.28;100.00
9774;BME280;4926;42.670;23.316;2023-05-12T05:04:52;94841.75;;;8.24;100.00
9774;BME280;4926;42.670;23.316;2023-05-12T05:07:21;94851.06;;;8.37;100.00
9774;BME280;4926;42.670;23.316;2023-05-12T05:09:49;94847.34;;;8.38;100.00
9774;BME280;4926;42.670;23.316;2023-05-12T05:12:16;94850.53;;;8.45;100.00
9774;BME280;4926;42.670;23.316;2023-05-12T05:14:46;94846.56;;;8.32;100.00
9774;BME280;4926;42.670;23.316;2023-05-12T05:17:12;94853.97;;;8.40;100.00
9774;BME280;4926;42.670;23.316;2023-05-12T05:19:39;94848.16;;;8.48;100.00
9774;BME280;4926;42.670;23.316;2023-05-12T05:22:06;94851.31;;;8.45;100.00
9774;BME280;4926;42.670;23.316;2023-05-12T05:24:33;94856.88;;;8.44;100.00
9774;BME280;4926;42.670;23.316;2023-05-12T05:27:01;94852.09;;;8.51;100.00
9774;BME280;4926;42.670;23.316;2023-05-12T05:29:27;94848.66;;;8.50;100.00
9774;BME280;4926;42.670;23.316;2023-05-12T05:31:54;94843.88;;;8.42;100.00
9774;BME280;4926;42.670;23.316;2023-05-12T05:34:21;94853.44;;;8.38;100.00
9774;BME280;4926;42.670;23.316;2023-05-12T05:36:48;94862.19;;;8.44;100.00
9774;BME280;4926;42.670;23.316;2023-05-12T05:39:14;94857.69;;;8.54;100.00
9774;BME280;4926;42.670;23.316;2023-05-12T05:41:41;94859.81;;;8.62;100.00
9774;BME280;4926;42.670;23.316;2023-05-12T05:44:09;94859.00;;;8.62;100.00
9774;BME280;4926;42.670;23.316;2023-05-12T05:46:41;94859.81;;;8.67;100.00
9774;BME280;4926;42.670;23.316;2023-05-12T05:49:07;94858.47;;;8.65;100.00
9774;BME280;4926;42.670;23.316;2023-05-12T05:51:37;94859.00;;;8.62;100.00
9774;BME280;4926;42.670;23.316;2023-05-12T05:54:03;94861.38;;;8.63;100.00
9774;BME280;4926;42.670;23.316;2023-05-12T05:56:32;94855.78;;;8.80;100.00
9774;BME280;4926;42.670;23.316;2023-05-12T05:59:00;94864.03;;;8.88;100.00
9774;BME280;4926;42.670;23.316;2023-05-12T06:01:38;94866.94;;;8.92;100.00
9774;BME280;4926;42.670;23.316;2023-05-12T06:04:05;94863.19;;;8.98;100.00
9774;BME280;4926;42.670;23.316;2023-05-12T06:06:31;94863.47;;;8.91;100.00
9774;BME280;4926;42.670;23.316;2023-05-12T06:08:58;94864.00;;;8.98;100.00
9774;BME280;4926;42.670;23.316;2023-05-12T06:11:25;94867.44;;;9.04;100.00
9774;BME280;4926;42.670;23.316;2023-05-12T06:13:51;94874.84;;;9.12;100.00
9774;BME280;4926;42.670;23.316;2023-05-12T06:16:21;94873.28;;;9.01;100.00
9774;BME280;4926;42.670;23.316;2023-05-12T06:18:49;94876.72;;;9.07;100.00
9774;BME280;4926;42.670;23.316;2023-05-12T06:21:21;94876.44;;;9.13;100.00
9774;BME280;4926;42.670;23.316;2023-05-12T06:23:48;94879.59;;;9.15;100.00
9774;BME280;4926;42.670;23.316;2023-05-12T06:26:15;94889.16;;;9.21;100.00
9774;BME280;4926;42.670;23.316;2023-05-12T06:28:44;94882.84;;;8.97;100.00
9774;BME280;4926;42.670;23.316;2023-05-12T06:31:11;94879.38;;;9.01;100.00
9774;BME280;4926;42.670;23.316;2023-05-12T06:33:38;94882.03;;;9.07;100.00
9774;BME280;4926;42.670;23.316;2023-05-12T06:36:07;94882.28;;;9.10;100.00
9774;BME280;4926;42.670;23.316;2023-05-12T06:38:34;94886.78;;;9.20;100.00
9774;BME280;4926;42.670;23.316;2023-05-12T06:41:01;94892.34;;;9.28;100.00
9774;BME280;4926;42.670;23.316;2023-05-12T06:43:28;94891.84;;;9.16;100.00
9774;BME280;4926;42.670;23.316;2023-05-12T06:45:57;94888.94;;;8.97;100.00
9774;BME280;4926;42.670;23.316;2023-05-12T06:48:24;94890.28;;;8.95;100.00
9774;BME280;4926;42.670;23.316;2023-05-12T06:50:51;94897.97;;;9.07;100.00
9774;BME280;4926;42.670;23.316;2023-05-12T06:53:19;94880.72;;;8.89;100.00
9774;BME280;4926;42.670;23.316;2023-05-12T06:55:49;94897.47;;;8.89;100.00
9774;BME280;4926;42.670;23.316;2023-05-12T06:58:17;94898.00;;;8.81;100.00
9774;BME280;4926;42.670;23.316;2023-05-12T07:00:46;94897.75;;;8.73;100.00
9774;BME280;4926;42.670;23.316;2023-05-12T07:03:15;94891.88;;;8.91;100.00
9774;BME280;4926;42.670;23.316;2023-05-12T07:05:41;94895.59;;;8.75;100.00
9774;BME280;4926;42.670;23.316;2023-05-12T07:08:08;94895.09;;;8.73;100.00
9774;BME280;4926;42.670;23.316;2023-05-12T07:10:36;94894.84;;;8.74;100.00
9774;BME280;4926;42.670;23.316;2023-05-12T07:13:04;94893.50;;;8.72;100.00
9774;BME280;4926;42.670;23.316;2023-05-12T07:15:31;94903.28;;;8.76;100.00
9774;BME280;4926;42.670;23.316;2023-05-12T07:17:58;94909.16;;;8.68;100.00
9774;BME280;4926;42.670;23.316;2023-05-12T07:20:24;94899.59;;;8.82;100.00
9774;BME280;4926;42.670;23.316;2023-05-12T07:22:51;94899.81;;;9.01;100.00
9774;BME280;4926;42.670;23.316;2023-05-12T07:25:19;94902.22;;;8.92;100.00
9774;BME280;4926;42.670;23.316;2023-05-12T07:27:47;94897.19;;;8.86;100.00
9774;BME280;4926;42.670;23.316;2023-05-12T07:30:14;94899.59;;;8.87;100.00
9774;BME280;4926;42.670;23.316;2023-05-12T07:32:41;94903.03;;;8.93;100.00
9774;BME280;4926;42.670;23.316;2023-05-12T07:35:08;94900.59;;;9.12;100.00
9774;BME280;4926;42.670;23.316;2023-05-12T07:37:35;94903.00;;;9.13;100.00
9774;BME280;4926;42.670;23.316;2023-05-12T07:40:05;94900.03;;;9.35;100.00
9774;BME280;4926;42.670;23.316;2023-05-12T07:42:32;94909.28;;;9.47;100.00
9774;BME280;4926;42.670;23.316;2023-05-12T07:45:00;94913.03;;;9.46;100.00
9774;BME280;4926;42.670;23.316;2023-05-12T07:47:28;94910.88;;;9.43;100.00
9774;BME280;4926;42.670;23.316;2023-05-12T07:50:00;94903.16;;;9.57;100.00
9774;BME280;4926;42.670;23.316;2023-05-12T07:52:28;94914.78;;;9.76;100.00
9774;BME280;4926;42.670;23.316;2023-05-12T07:54:55;94905.03;;;9.51;100.00
9774;BME280;4926;42.670;23.316;2023-05-12T07:57:22;94909.78;;;9.54;100.00
9774;BME280;4926;42.670;23.316;2023-05-12T07:59:48;94888.56;;;9.44;100.00
9774;BME280;4926;42.670;23.316;2023-05-12T08:02:17;94909.25;;;9.57;100.00
9774;BME280;4926;42.670;23.316;2023-05-12T08:04:45;94905.06;;;9.36;100.00
9774;BME280;4926;42.670;23.316;2023-05-12T08:07:11;94905.84;;;9.37;100.00
9774;BME280;4926;42.670;23.316;2023-05-12T08:09:41;94901.28;;;9.57;100.00
9774;BME280;4926;42.670;23.316;2023-05-12T08:12:08;94902.66;;;10.03;100.00
9774;BME280;4926;42.670;23.316;2023-05-12T08:14:36;94894.81;;;10.27;100.00
9774;BME280;4926;42.670;23.316;2023-05-12T08:17:05;94900.69;;;10.63;100.00
9774;BME280;4926;42.670;23.316;2023-05-12T08:19:34;94895.28;;;10.73;100.00
9774;BME280;4926;42.670;23.316;2023-05-12T08:22:01;94898.25;;;10.33;100.00
9774;BME280;4926;42.670;23.316;2023-05-12T08:24:27;94901.56;;;10.53;100.00
9774;BME280;4926;42.670;23.316;2023-05-12T08:26:57;94907.84;;;10.67;100.00
9774;BME280;4926;42.670;23.316;2023-05-12T08:29:23;94901.84;;;10.52;100.00
9774;BME280;4926;42.670;23.316;2023-05-12T08:31:50;94897.38;;;10.81;100.00
9774;BME280;4926;42.670;23.316;2023-05-12T08:34:17;94887.66;;;10.90;100.00
9774;BME280;4926;42.670;23.316;2023-05-12T08:36:45;94900.25;;;11.13;100.00
9774;BME280;4926;42.670;23.316;2023-05-12T08:39:12;94903.91;;;11.22;100.00
9774;BME280;4926;42.670;23.316;2023-05-12T08:41:42;94914.81;;;10.63;100.00
9774;BME280;4926;42.670;23.316;2023-05-12T08:44:10;94908.16;;;10.61;100.00
9774;BME280;4926;42.670;23.316;2023-05-12T08:46:37;94904.75;;;10.89;100.00
9774;BME280;4926;42.670;23.316;2023-05-12T08:49:05;94908.56;;;10.78;100.00
9774;BME280;4926;42.670;23.316;2023-05-12T08:51:37;94901.25;;;10.60;100.00
9774;BME280;4926;42.670;23.316;2023-05-12T08:54:11;94897.28;;;10.91;100.00
9774;BME280;4926;42.670;23.316;2023-05-12T08:56:39;94904.59;;;11.04;100.00
9774;BME280;4926;42.670;23.316;2023-05-12T08:59:07;94894.28;;;11.26;100.00
9774;BME280;4926;42.670;23.316;2023-05-12T09:01:37;94909.56;;;11.39;100.00
9774;BME280;4926;42.670;23.316;2023-05-12T09:04:07;94910.59;;;11.43;99.76
9774;BME280;4926;42.670;23.316;2023-05-12T09:06:37;94894.94;;;11.60;100.00
9774;BME280;4926;42.670;23.316;2023-05-12T09:09:04;94896.47;;;11.71;98.85
9774;BME280;4926;42.670;23.316;2023-05-12T09:11:36;94898.41;;;11.84;96.88
9774;BME280;4926;42.670;23.316;2023-05-12T09:14:05;94893.94;;;11.80;92.48
9774;BME280;4926;42.670;23.316;2023-05-12T09:16:38;94891.00;;;11.58;91.89
9774;BME280;4926;42.670;23.316;2023-05-12T09:19:05;94890.31;;;11.47;94.29
9774;BME280;4926;42.670;23.316;2023-05-12T09:21:33;94894.84;;;11.47;92.58
9774;BME280;4926;42.670;23.316;2023-05-12T09:24:06;94893.13;;;11.32;94.02
9774;BME280;4926;42.670;23.316;2023-05-12T09:26:45;94889.41;;;11.33;92.93
9774;BME280;4926;42.670;23.316;2023-05-12T09:29:12;94883.34;;;10.99;94.49
9774;BME280;4926;42.670;23.316;2023-05-12T09:31:48;94883.38;;;10.94;94.80
9774;BME280;4926;42.670;23.316;2023-05-12T09:34:15;94891.47;;;10.84;95.05
9774;BME280;4926;42.670;23.316;2023-05-12T09:36:42;94875.34;;;10.70;96.58
9774;BME280;4926;42.670;23.316;2023-05-12T09:39:10;94878.06;;;10.94;97.23
9774;BME280;4926;42.670;23.316;2023-05-12T09:41:38;94873.06;;;11.16;98.17
9774;BME280;4926;42.670;23.316;2023-05-12T09:44:09;94882.63;;;11.41;95.39
9774;BME280;4926;42.670;23.316;2023-05-12T09:46:40;94891.69;;;11.68;93.06
9774;BME280;4926;42.670;23.316;2023-05-12T09:49:10;94877.16;;;11.79;90.63
9774;BME280;4926;42.670;23.316;2023-05-12T09:51:40;94869.66;;;11.81;88.92
9774;BME280;4926;42.670;23.316;2023-05-12T09:54:11;94881.13;;;11.82;87.85
9774;BME280;4926;42.670;23.316;2023-05-12T09:56:39;94883.38;;;11.93;87.96
9774;BME280;4926;42.670;23.316;2023-05-12T09:59:10;94881.78;;;11.92;86.38
9774;BME280;4926;42.670;23.316;2023-05-12T10:01:38;94892.09;;;11.80;87.43
9774;BME280;4926;42.670;23.316;2023-05-12T10:04:07;94890.09;;;11.67;85.63
9774;BME280;4926;42.670;23.316;2023-05-12T10:06:40;94868.75;;;11.67;83.88
9774;BME280;4926;42.670;23.316;2023-05-12T10:09:10;94870.81;;;11.75;83.00
9774;BME280;4926;42.670;23.316;2023-05-12T10:11:42;94865.78;;;11.74;83.09
9774;BME280;4926;42.670;23.316;2023-05-12T10:14:11;94857.63;;;11.84;81.27
9774;BME280;4926;42.670;23.316;2023-05-12T10:16:39;94861.91;;;12.03;81.33
9774;BME280;4926;42.670;23.316;2023-05-12T10:19:07;94857.50;;;12.31;80.88
9774;BME280;4926;42.670;23.316;2023-05-12T10:21:37;94859.50;;;12.58;81.29
9774;BME280;4926;42.670;23.316;2023-05-12T10:24:04;94855.78;;;13.04;80.74
9774;BME280;4926;42.670;23.316;2023-05-12T10:26:32;94845.47;;;12.98;74.66
9774;BME280;4926;42.670;23.316;2023-05-12T10:28:59;94848.53;;;12.59;76.24
9774;BME280;4926;42.670;23.316;2023-05-12T10:31:28;94854.06;;;12.63;77.21
9774;BME280;4926;42.670;23.316;2023-05-12T10:33:59;94853.16;;;12.54;77.22
9774;BME280;4926;42.670;23.316;2023-05-12T10:36:26;94848.72;;;12.63;77.06
9774;BME280;4926;42.670;23.316;2023-05-12T10:38:54;94850.69;;;12.57;77.86
9774;BME280;4926;42.670;23.316;2023-05-12T10:41:38;94840.16;;;12.79;76.47
9774;BME280;4926;42.670;23.316;2023-05-12T10:44:06;94841.47;;;12.82;75.76
9774;BME280;4926;42.670;23.316;2023-05-12T10:46:36;94835.53;;;12.85;76.94
9774;BME280;4926;42.670;23.316;2023-05-12T10:49:06;94834.44;;;13.18;76.46
9774;BME280;4926;42.670;23.316;2023-05-12T10:51:45;94831.84;;;13.40;75.06
9774;BME280;4926;42.670;23.316;2023-05-12T10:54:18;94834.81;;;13.38;73.89
9774;BME280;4926;42.670;23.316;2023-05-12T10:56:45;94831.28;;;13.43;73.88
9774;BME280;4926;42.670;23.316;2023-05-12T10:59:15;94822.44;;;13.56;72.49
9774;BME280;4926;42.670;23.316;2023-05-12T11:02:04;94826.09;;;13.87;71.19
9774;BME280;4926;42.670;23.316;2023-05-12T11:04:39;94836.81;;;13.87;71.97
9774;BME280;4926;42.670;23.316;2023-05-12T11:07:09;94834.28;;;14.04;71.26
9774;BME280;4926;42.670;23.316;2023-05-12T11:09:38;94816.50;;;14.08;70.14
9774;BME280;4926;42.670;23.316;2023-05-12T11:12:09;94821.09;;;14.08;69.94
9774;BME280;4926;42.670;23.316;2023-05-12T11:14:37;94834.25;;;14.18;71.11
9774;BME280;4926;42.670;23.316;2023-05-12T11:17:09;94841.69;;;14.07;69.95
9774;BME280;4926;42.670;23.316;2023-05-12T11:19:36;94836.78;;;14.01;70.32
9774;BME280;4926;42.670;23.316;2023-05-12T11:22:15;94832.19;;;14.01;70.72
9774;BME280;4926;42.670;23.316;2023-05-12T11:24:42;94850.72;;;13.98;71.10
9774;BME280;4926;42.670;23.316;2023-05-12T11:27:12;94847.69;;;13.77;70.47
9774;BME280;4926;42.670;23.316;2023-05-12T11:29:39;94853.47;;;13.71;71.25
9774;BME280;4926;42.670;23.316;2023-05-12T11:32:09;94837.41;;;13.57;71.70
9774;BME280;4926;42.670;23.316;2023-05-12T11:34:39;94847.31;;;13.70;72.02
9774;BME280;4926;42.670;23.316;2023-05-12T11:37:09;94844.72;;;13.65;70.25
9774;BME280;4926;42.670;23.316;2023-05-12T11:39:35;94851.50;;;13.63;70.82
9774;BME280;4926;42.670;23.316;2023-05-12T11:42:03;94846.53;;;13.56;70.96
9774;BME280;4926;42.670;23.316;2023-05-12T11:44:31;94853.66;;;13.33;71.42
9774;BME280;4926;42.670;23.316;2023-05-12T11:46:59;94845.31;;;13.21;72.34
9774;BME280;4926;42.670;23.316;2023-05-12T11:49:28;94856.13;;;13.30;72.79
9774;BME280;4926;42.670;23.316;2023-05-12T11:51:57;94842.06;;;13.38;71.11
9774;BME280;4926;42.670;23.316;2023-05-12T11:54:28;94838.00;;;13.27;70.35
9774;BME280;4926;42.670;23.316;2023-05-12T11:56:56;94844.34;;;13.31;71.29
9774;BME280;4926;42.670;23.316;2023-05-12T11:59:28;94846.31;;;13.39;71.46
9774;BME280;4926;42.670;23.316;2023-05-12T12:01:56;94845.16;;;13.45;70.69
9774;BME280;4926;42.670;23.316;2023-05-12T12:04:37;94845.34;;;13.49;71.59
9774;BME280;4926;42.670;23.316;2023-05-12T12:07:05;94835.03;;;13.42;69.81
9774;BME280;4926;42.670;23.316;2023-05-12T12:09:33;94841.78;;;13.53;70.19
9774;BME280;4926;42.670;23.316;2023-05-12T12:12:02;94844.53;;;13.62;71.23
9774;BME280;4926;42.670;23.316;2023-05-12T12:14:31;94844.75;;;13.52;70.63
9774;BME280;4926;42.670;23.316;2023-05-12T12:16:59;94845.63;;;13.33;70.15
9774;BME280;4926;42.670;23.316;2023-05-12T12:19:29;94835.03;;;13.42;71.28
9774;BME280;4926;42.670;23.316;2023-05-12T12:22:00;94854.84;;;13.68;69.24
9774;BME280;4926;42.670;23.316;2023-05-12T12:24:27;94850.69;;;13.62;68.46
9774;BME280;4926;42.670;23.316;2023-05-12T12:26:53;94830.19;;;13.71;66.86
9774;BME280;4926;42.670;23.316;2023-05-12T12:29:20;94839.88;;;13.67;67.24
9774;BME280;4926;42.670;23.316;2023-05-12T12:31:53;94847.31;;;13.70;67.56
9774;BME280;4926;42.670;23.316;2023-05-12T12:34:19;94843.16;;;13.64;67.79
9774;BME280;4926;42.670;23.316;2023-05-12T12:36:46;94837.22;;;13.67;66.83
9774;BME280;4926;42.670;23.316;2023-05-12T12:39:14;94828.59;;;13.43;67.24
9774;BME280;4926;42.670;23.316;2023-05-12T12:41:41;94837.41;;;13.43;67.19
9774;BME280;4926;42.670;23.316;2023-05-12T12:44:08;94839.31;;;13.43;67.65
9774;BME280;4926;42.670;23.316;2023-05-12T12:46:35;94834.06;;;13.38;67.07
9774;BME280;4926;42.670;23.316;2023-05-12T12:49:03;94838.59;;;13.51;66.62
9774;BME280;4926;42.670;23.316;2023-05-12T12:51:30;94833.16;;;13.56;66.75
9774;BME280;4926;42.670;23.316;2023-05-12T12:53:58;94841.56;;;13.50;66.85
9774;BME280;4926;42.670;23.316;2023-05-12T12:56:30;94820.38;;;13.26;65.41
9774;BME280;4926;42.670;23.316;2023-05-12T12:58:57;94835.03;;;13.15;66.71
9774;BME280;4926;42.670;23.316;2023-05-12T13:01:24;94834.22;;;13.28;66.55
9774;BME280;4926;42.670;23.316;2023-05-12T13:03:51;94831.09;;;13.26;66.02
9774;BME280;4926;42.670;23.316;2023-05-12T13:06:17;94828.41;;;13.26;66.69
9774;BME280;4926;42.670;23.316;2023-05-12T13:08:44;94824.94;;;13.39;65.86
9774;BME280;4926;42.670;23.316;2023-05-12T13:11:11;94817.00;;;13.48;65.91
9774;BME280;4926;42.670;23.316;2023-05-12T13:13:39;94809.34;;;13.68;64.79
9774;BME280;4926;42.670;23.316;2023-05-12T13:16:06;94805.72;;;13.64;63.99